• Join FlightAware (Why Join?)
  • Login
  • US Flag 
08:25PM EDT


 

Airport Tracker/Info


-or-


 

Live Flight TrackerFlight Track Log ✈ TAM3920 ✈ 11-Dec-2013 ✈ SBSP / CGH - SBRJ / SDU

Flight Track Log - Related Links

Times and Time Zones

All times are in EST time to prevent confusion due to time zone crossing. See the TAM3920 flight status page for this flight to view local times or setup timezone preferences in your user account.

Time Position Orientation Groundspeed Altitude Reporting Facility
EST Latitude Longitude Course Direction KTS MPH feet Rate Location/Type
08:30AM -23.4460 -45.7342 78° East  Level Estimated
08:31AM -23.4277 -45.6422 78° East  Level Estimated
08:32AM -23.4092 -45.5503 78° East  Level Estimated
08:33AM -23.3908 -45.4583 78° East  Level Estimated
08:34AM -23.3722 -45.3664 78° East  Level Estimated
08:35AM -23.3536 -45.2746 78° East  Level Estimated
08:36AM -23.3350 -45.1827 78° East  Level Estimated
08:37AM -23.3163 -45.0909 78° East  Level Estimated
08:38AM -23.2976 -44.9991 77° East  Level Estimated
08:39AM -23.2788 -44.9073 77° East  Level Estimated
08:40AM -23.2600 -44.8156 77° East  Level Estimated
08:41AM -23.2411 -44.7238 77° East  Level Estimated
08:42AM -23.2221 -44.6321 77° East  Level Estimated
08:43AM -23.2031 -44.5405 77° East  Level Estimated
08:44AM -23.1840 -44.4488 77° East  Level Estimated
08:45AM -23.1649 -44.3572 77° East  Level Estimated
08:46AM -23.1458 -44.2656 77° East  Level Estimated
08:47AM -23.1265 -44.1741 77° East  Level Estimated
08:48AM -23.1073 -44.0825 77° East  Level Estimated
08:49AM -23.0879 -43.9910 77° East  Level Estimated
08:50AM -23.0686 -43.8995 77° East  Level Estimated
08:51AM -23.0491 -43.8081 77° East  Level Estimated
08:52AM -23.0296 -43.7166 77° East  Level Estimated
08:53AM -23.0101 -43.6252 77° East  Level Estimated
08:54AM -22.9905 -43.5339 77° East  Level Estimated
08:55AM -22.9709 -43.4425 77° East  Level Estimated
08:56AM -22.9512 -43.3512 77° East  Level Estimated
08:57AM -22.9314 -43.2599 77° East  Level Estimated
08:58AM -22.9116 -43.1686 77° East  Level Estimated
08:59AM -22.9105 -43.1631 77° East  Level Estimated
09:00AM -22.9105 -43.1631 250° West  Level Estimated
09:01AM -22.9105 -43.1631 250° West  Level Estimated
09:02AM -22.9105 -43.1631 250° West  Level Estimated
09:03AM -22.9105 -43.1631 250° West  Level Estimated
09:04AM -22.9105 -43.1631 250° West  Level Estimated
09:05AM -22.9105 -43.1631 250° West  Level Estimated
09:06AM -22.9105 -43.1631 250° West  Level Estimated
09:07AM -22.9105 -43.1631 250° West  Level Estimated
09:08AM -22.9105 -43.1631 250° West  Level Estimated
09:09AM -22.9105 -43.1631 250° West  Level Estimated
09:10AM -22.9105 -43.1631 250° West  Level Estimated
09:11AM -22.9105 -43.1631 250° West  Level Estimated
09:12AM -22.9105 -43.1631 250° West  Level Estimated
09:13AM -22.9105 -43.1631 250° West  Level Estimated
09:14AM -22.9105 -43.1631 250° West  Level Estimated